createdAt,value
2022-12-31T00:01:10.872Z,31.60
2022-12-31T00:03:18.692Z,31.20
2022-12-31T00:05:23.494Z,29.00
2022-12-31T00:09:35.756Z,32.10
2022-12-31T00:11:40.687Z,29.20
2022-12-31T00:13:45.951Z,29.30
2022-12-31T00:15:50.643Z,29.30
2022-12-31T00:17:58.011Z,30.60
2022-12-31T00:20:04.191Z,28.70
2022-12-31T00:22:08.952Z,29.50
2022-12-31T00:24:13.693Z,30.00
2022-12-31T00:26:20.067Z,27.60
2022-12-31T00:28:25.041Z,28.90
2022-12-31T00:30:33.976Z,28.40
2022-12-31T00:32:39.012Z,25.20
2022-12-31T00:34:43.685Z,26.70
2022-12-31T00:36:48.470Z,28.10
2022-12-31T00:38:56.364Z,27.00
2022-12-31T00:41:01.275Z,28.70
2022-12-31T00:43:06.017Z,28.40
2022-12-31T00:45:12.008Z,29.90
2022-12-31T00:47:16.738Z,29.50
2022-12-31T00:49:25.171Z,26.40
2022-12-31T00:51:30.487Z,27.00
2022-12-31T00:53:35.997Z,26.40
2022-12-31T00:55:40.816Z,25.70
2022-12-31T00:57:45.655Z,25.00
2022-12-31T00:59:50.405Z,25.80
2022-12-31T01:01:58.086Z,25.80
2022-12-31T01:04:05.305Z,24.20
2022-12-31T01:06:12.862Z,23.90
2022-12-31T01:08:17.710Z,25.20
2022-12-31T01:10:22.704Z,26.50
2022-12-31T01:12:27.708Z,25.60
2022-12-31T01:14:32.422Z,24.50
2022-12-31T01:16:40.934Z,26.80
2022-12-31T01:18:45.820Z,24.40
2022-12-31T01:20:53.242Z,23.30
2022-12-31T01:22:58.363Z,23.80
2022-12-31T01:25:03.106Z,24.10
2022-12-31T01:27:08.349Z,24.60
2022-12-31T01:29:14.153Z,25.50
2022-12-31T01:31:21.007Z,26.10
2022-12-31T01:33:31.434Z,28.00
2022-12-31T01:35:37.395Z,26.80
2022-12-31T01:37:42.299Z,27.90
2022-12-31T01:39:47.081Z,27.40
2022-12-31T01:41:52.216Z,29.00
2022-12-31T01:43:58.984Z,27.10
2022-12-31T01:46:08.045Z,26.60
2022-12-31T01:48:15.393Z,26.60
2022-12-31T01:50:25.302Z,27.40
2022-12-31T01:52:34.856Z,24.00
2022-12-31T01:54:44.765Z,23.70
2022-12-31T01:56:53.700Z,27.00
2022-12-31T01:59:10.626Z,25.50
2022-12-31T02:01:20.019Z,19.60
2022-12-31T02:03:27.208Z,24.80
2022-12-31T02:05:37.692Z,27.10
2022-12-31T02:07:43.107Z,26.90
2022-12-31T02:09:48.108Z,27.60
2022-12-31T02:11:52.798Z,24.60
2022-12-31T02:14:06.105Z,26.00
2022-12-31T02:16:19.469Z,25.80
2022-12-31T02:18:34.864Z,26.00
2022-12-31T02:21:04.365Z,25.30
2022-12-31T02:23:32.635Z,25.10
2022-12-31T02:26:11.620Z,27.60
2022-12-31T02:28:42.640Z,26.90
2022-12-31T02:30:56.044Z,27.40
2022-12-31T02:33:14.527Z,26.50
2022-12-31T02:35:24.493Z,25.50
2022-12-31T02:37:33.687Z,24.60
2022-12-31T02:39:40.636Z,26.50
2022-12-31T02:41:49.544Z,26.80
2022-12-31T02:43:54.274Z,26.10
2022-12-31T02:46:08.018Z,27.40
2022-12-31T02:48:42.796Z,27.40
2022-12-31T02:50:57.991Z,27.30
2022-12-31T02:53:15.107Z,24.70
2022-12-31T02:55:24.966Z,25.50
2022-12-31T02:57:38.141Z,24.90
2022-12-31T02:59:51.856Z,23.20
2022-12-31T03:02:04.565Z,24.60
2022-12-31T03:04:09.680Z,25.20
2022-12-31T03:06:15.354Z,24.30
2022-12-31T03:08:25.134Z,24.70
2022-12-31T03:10:29.904Z,23.90
2022-12-31T03:12:36.255Z,24.80
2022-12-31T03:14:41.310Z,25.70
2022-12-31T03:16:49.005Z,25.00
2022-12-31T03:18:54.704Z,23.00
2022-12-31T03:21:00.540Z,24.40
2022-12-31T03:23:10.086Z,24.90
2022-12-31T03:25:18.611Z,24.30
2022-12-31T03:27:23.314Z,24.40
2022-12-31T03:29:28.011Z,23.60
2022-12-31T03:31:32.805Z,25.30
2022-12-31T03:33:39.971Z,23.00
2022-12-31T03:35:46.182Z,21.30
2022-12-31T03:37:51.649Z,22.80
2022-12-31T03:39:59.214Z,23.50
2022-12-31T03:42:05.389Z,25.00
2022-12-31T03:44:10.115Z,23.60
2022-12-31T03:46:15.277Z,26.00
2022-12-31T03:48:23.677Z,23.60
2022-12-31T03:50:28.846Z,23.40
2022-12-31T03:52:36.415Z,25.80
2022-12-31T03:54:42.311Z,24.70
2022-12-31T03:56:49.696Z,24.90
2022-12-31T03:58:54.532Z,24.40
2022-12-31T04:00:59.436Z,25.70
2022-12-31T04:03:04.381Z,24.40
2022-12-31T04:05:10.107Z,23.30
2022-12-31T04:07:14.862Z,25.70
2022-12-31T04:09:19.837Z,25.40
2022-12-31T04:11:25.256Z,23.80
2022-12-31T04:13:29.969Z,24.90
2022-12-31T04:15:34.800Z,25.70
2022-12-31T04:17:42.053Z,25.10
2022-12-31T04:19:49.579Z,25.90
2022-12-31T04:21:54.307Z,24.80
2022-12-31T04:24:00.318Z,26.70
2022-12-31T04:26:05.199Z,24.30
2022-12-31T04:28:09.869Z,25.30
2022-12-31T04:30:15.402Z,23.90
2022-12-31T04:32:21.510Z,22.10
2022-12-31T04:34:26.247Z,22.30
2022-12-31T04:36:31.210Z,23.10
2022-12-31T04:38:36.045Z,22.60
2022-12-31T04:40:44.879Z,21.30
2022-12-31T04:42:49.546Z,21.00
2022-12-31T04:44:54.330Z,22.20
2022-12-31T04:46:59.021Z,21.20
2022-12-31T04:49:06.417Z,22.80
2022-12-31T04:51:14.656Z,21.50
2022-12-31T04:53:21.238Z,20.90
2022-12-31T04:55:25.971Z,19.70
2022-12-31T04:57:33.692Z,20.60
2022-12-31T04:59:38.364Z,20.40
2022-12-31T05:01:43.090Z,21.10
2022-12-31T05:03:48.330Z,21.00
2022-12-31T05:05:54.725Z,22.30
2022-12-31T05:07:59.544Z,23.00
2022-12-31T05:10:04.808Z,21.50
2022-12-31T05:12:09.617Z,21.40
2022-12-31T05:14:14.309Z,22.40
2022-12-31T05:16:23.553Z,21.50
2022-12-31T05:18:28.358Z,22.80
2022-12-31T05:20:33.107Z,22.70
2022-12-31T05:22:37.849Z,20.60
2022-12-31T05:24:42.794Z,21.20
2022-12-31T05:26:47.556Z,22.40
2022-12-31T05:28:53.173Z,22.20
2022-12-31T05:30:58.321Z,23.20
2022-12-31T05:33:03.882Z,20.50
2022-12-31T05:35:09.876Z,21.60
2022-12-31T05:37:14.725Z,20.80
2022-12-31T05:39:19.425Z,21.50
2022-12-31T05:41:24.172Z,21.30
2022-12-31T05:43:29.329Z,21.70
2022-12-31T05:45:34.094Z,21.40
2022-12-31T05:47:38.937Z,19.40
2022-12-31T05:49:45.198Z,20.50
2022-12-31T05:51:49.947Z,21.50
2022-12-31T05:53:54.684Z,21.40
2022-12-31T05:56:00.242Z,22.50
2022-12-31T05:58:07.903Z,20.40
2022-12-31T06:00:14.859Z,21.00
2022-12-31T06:02:23.295Z,19.80
2022-12-31T06:04:28.741Z,21.40
2022-12-31T06:06:33.716Z,19.50
2022-12-31T06:08:39.031Z,20.40
2022-12-31T06:10:44.135Z,19.80
2022-12-31T06:12:48.879Z,19.30
2022-12-31T06:14:53.752Z,19.00
2022-12-31T06:16:58.504Z,21.00
2022-12-31T06:19:03.519Z,20.50
2022-12-31T06:21:08.539Z,20.20
2022-12-31T06:23:13.355Z,21.20
2022-12-31T06:25:18.475Z,19.60
2022-12-31T06:27:26.182Z,19.60
2022-12-31T06:29:30.900Z,20.50
2022-12-31T06:31:36.333Z,20.30
2022-12-31T06:33:44.067Z,19.90
2022-12-31T06:35:48.987Z,20.00
2022-12-31T06:37:54.614Z,19.70
2022-12-31T06:39:59.494Z,20.20
2022-12-31T06:42:04.440Z,21.40
2022-12-31T06:44:09.404Z,20.60
2022-12-31T06:46:16.211Z,19.80
2022-12-31T06:48:21.099Z,20.50
2022-12-31T06:50:25.847Z,22.10
2022-12-31T06:52:31.850Z,26.70
2022-12-31T06:54:37.464Z,20.80
2022-12-31T06:56:43.573Z,19.90
2022-12-31T06:58:49.436Z,20.00
2022-12-31T07:01:06.544Z,20.20
2022-12-31T07:03:29.467Z,21.00
2022-12-31T07:05:45.908Z,19.70
2022-12-31T07:08:02.209Z,20.30
2022-12-31T07:10:25.587Z,19.10
2022-12-31T07:12:45.517Z,19.50
2022-12-31T07:14:58.050Z,20.30
2022-12-31T07:17:13.223Z,20.20
2022-12-31T07:19:32.611Z,20.60
2022-12-31T07:21:40.159Z,19.60
2022-12-31T07:23:48.844Z,18.90
2022-12-31T07:26:01.134Z,18.80
2022-12-31T07:28:19.390Z,20.30
2022-12-31T07:30:29.906Z,19.00
2022-12-31T07:33:06.289Z,18.90
2022-12-31T07:35:22.821Z,19.20
2022-12-31T07:37:42.383Z,20.40
2022-12-31T07:40:03.308Z,19.60
2022-12-31T07:42:15.269Z,20.50
2022-12-31T07:44:41.943Z,19.70
2022-12-31T07:46:55.024Z,19.10
2022-12-31T07:49:02.067Z,20.90
2022-12-31T07:51:10.033Z,20.70
2022-12-31T07:53:17.620Z,21.00
2022-12-31T07:55:22.309Z,19.90
2022-12-31T07:57:36.987Z,19.50
2022-12-31T07:59:56.219Z,19.30
2022-12-31T08:02:07.246Z,19.30
2022-12-31T08:04:24.527Z,18.10
2022-12-31T08:06:39.041Z,19.40
2022-12-31T08:08:50.906Z,18.60
2022-12-31T08:11:06.611Z,20.70
2022-12-31T08:13:14.518Z,19.80
2022-12-31T08:15:25.384Z,19.00
2022-12-31T08:17:32.721Z,20.30
2022-12-31T08:19:39.195Z,21.80
2022-12-31T08:21:52.584Z,22.00
2022-12-31T08:24:06.552Z,24.90
2022-12-31T08:26:29.451Z,20.60
2022-12-31T08:28:50.660Z,20.50
2022-12-31T08:31:01.846Z,21.30
2022-12-31T08:33:14.194Z,20.60
2022-12-31T08:35:36.076Z,20.50
2022-12-31T08:37:48.302Z,20.70
2022-12-31T08:40:06.896Z,21.40
2022-12-31T08:42:31.188Z,19.80
2022-12-31T08:44:44.618Z,21.80
2022-12-31T08:46:55.712Z,21.40
2022-12-31T08:49:01.275Z,21.00
2022-12-31T08:51:15.267Z,18.80
2022-12-31T08:53:21.742Z,20.60
2022-12-31T08:55:27.434Z,19.20
2022-12-31T08:57:39.926Z,20.60
2022-12-31T08:59:54.465Z,21.80
2022-12-31T09:02:46.210Z,20.80
2022-12-31T09:05:04.517Z,22.00
2022-12-31T09:07:12.761Z,21.00
2022-12-31T09:09:27.806Z,20.90
2022-12-31T09:11:43.232Z,19.50
2022-12-31T09:14:08.501Z,22.10
2022-12-31T09:16:22.782Z,19.80
2022-12-31T09:18:33.133Z,20.30
2022-12-31T09:20:44.155Z,22.50
2022-12-31T09:22:49.855Z,168.60
2022-12-31T09:24:55.191Z,290.10
2022-12-31T09:27:11.354Z,27.40
2022-12-31T09:29:27.809Z,20.90
2022-12-31T09:31:40.378Z,20.30
2022-12-31T09:33:51.585Z,20.90
2022-12-31T09:36:02.071Z,23.10
2022-12-31T09:38:16.650Z,20.30
2022-12-31T09:40:50.746Z,18.70
2022-12-31T09:43:18.933Z,21.60
2022-12-31T09:46:19.257Z,21.00
2022-12-31T09:49:01.862Z,19.20
2022-12-31T09:51:27.787Z,19.40
2022-12-31T09:53:56.315Z,22.00
2022-12-31T09:56:06.332Z,19.50
2022-12-31T09:58:28.977Z,18.60
2022-12-31T10:00:41.567Z,19.40
2022-12-31T10:03:07.199Z,20.00
2022-12-31T10:05:35.637Z,22.50
2022-12-31T10:07:53.509Z,20.00
2022-12-31T10:10:09.449Z,25.10
2022-12-31T10:12:42.431Z,22.70
2022-12-31T10:15:09.837Z,19.40
2022-12-31T10:17:32.646Z,20.80
2022-12-31T10:20:03.095Z,39.40
2022-12-31T10:22:26.597Z,26.20
2022-12-31T10:24:53.316Z,24.50
2022-12-31T10:27:11.228Z,24.50
2022-12-31T10:29:31.390Z,22.00
2022-12-31T10:31:50.277Z,20.30
2022-12-31T10:34:05.839Z,20.40
2022-12-31T10:36:18.743Z,20.70
2022-12-31T10:38:38.519Z,21.00
2022-12-31T10:41:08.528Z,20.90
2022-12-31T10:43:55.486Z,21.40
2022-12-31T10:46:33.315Z,21.00
2022-12-31T10:49:01.013Z,20.60
2022-12-31T10:51:45.455Z,22.70
2022-12-31T10:54:19.185Z,21.30
2022-12-31T10:57:05.951Z,22.70
2022-12-31T10:59:34.082Z,23.80
2022-12-31T11:01:58.022Z,21.50
2022-12-31T11:04:33.510Z,26.00
2022-12-31T11:07:04.650Z,22.80
2022-12-31T11:09:34.558Z,21.70
2022-12-31T11:11:53.085Z,22.10
2022-12-31T11:14:20.521Z,21.30
2022-12-31T11:16:33.903Z,21.20
2022-12-31T11:18:47.088Z,22.60
2022-12-31T11:21:06.999Z,20.20
2022-12-31T11:23:26.938Z,23.30
2022-12-31T11:25:41.121Z,22.30
2022-12-31T11:28:05.379Z,21.60
2022-12-31T11:30:22.645Z,22.00
2022-12-31T11:32:44.335Z,21.60
2022-12-31T11:35:15.632Z,22.80
2022-12-31T11:37:33.260Z,22.30
2022-12-31T11:39:49.068Z,25.00
2022-12-31T11:41:58.942Z,26.30
2022-12-31T11:44:18.052Z,27.10
2022-12-31T11:46:56.001Z,22.90
2022-12-31T11:49:16.270Z,22.70
2022-12-31T11:51:50.047Z,24.00
2022-12-31T11:54:19.747Z,23.30
2022-12-31T11:56:29.412Z,24.80
2022-12-31T11:58:34.349Z,23.40
2022-12-31T12:00:42.871Z,24.40
2022-12-31T12:02:49.565Z,25.50
2022-12-31T12:04:55.983Z,24.00
2022-12-31T12:07:00.798Z,22.60
2022-12-31T12:09:11.216Z,22.80
2022-12-31T12:11:21.609Z,22.50
2022-12-31T12:13:27.847Z,23.20
2022-12-31T12:15:34.333Z,24.80
2022-12-31T12:17:40.793Z,23.20
2022-12-31T12:19:47.746Z,24.10
2022-12-31T12:21:55.772Z,24.60
2022-12-31T12:24:02.305Z,23.50
2022-12-31T12:26:07.681Z,24.10
2022-12-31T12:28:24.369Z,22.00
2022-12-31T12:30:30.004Z,19.60
2022-12-31T12:32:35.119Z,22.00
2022-12-31T12:34:47.545Z,21.10
2022-12-31T12:36:54.736Z,21.40
2022-12-31T12:39:07.880Z,23.10
2022-12-31T12:41:19.819Z,21.20
2022-12-31T12:43:28.767Z,23.70
2022-12-31T12:45:45.140Z,23.70
2022-12-31T12:47:58.418Z,22.70
2022-12-31T12:50:04.097Z,21.90
2022-12-31T12:52:24.062Z,22.90
2022-12-31T12:54:44.871Z,21.00
2022-12-31T12:57:02.247Z,22.60
2022-12-31T12:59:30.487Z,21.50
2022-12-31T13:01:45.200Z,21.80
2022-12-31T13:04:34.076Z,22.50
2022-12-31T13:06:53.147Z,22.50
2022-12-31T13:09:10.924Z,22.90
2022-12-31T13:11:30.817Z,23.20
2022-12-31T13:13:45.607Z,23.30
2022-12-31T13:15:57.182Z,26.90
2022-12-31T13:18:12.945Z,26.30
2022-12-31T13:20:25.445Z,24.50
2022-12-31T13:22:37.514Z,25.00
2022-12-31T13:24:52.524Z,26.70
2022-12-31T13:27:05.848Z,21.70
2022-12-31T13:29:19.307Z,23.80
2022-12-31T13:31:33.284Z,22.10
2022-12-31T13:33:42.577Z,23.20
2022-12-31T13:35:52.915Z,23.00
2022-12-31T13:38:05.631Z,23.60
2022-12-31T13:40:23.900Z,23.20
2022-12-31T13:42:35.678Z,25.70
2022-12-31T13:44:46.979Z,22.50
2022-12-31T13:46:56.643Z,24.00
2022-12-31T13:49:05.065Z,24.00
2022-12-31T13:51:21.092Z,25.70
2022-12-31T13:53:33.756Z,29.80
2022-12-31T13:55:42.715Z,28.60
2022-12-31T13:57:51.268Z,27.90
2022-12-31T14:00:02.204Z,27.50
2022-12-31T14:02:31.758Z,26.80
2022-12-31T14:04:42.541Z,26.30
2022-12-31T14:06:54.642Z,25.90
2022-12-31T14:08:59.445Z,23.80
2022-12-31T14:11:14.473Z,25.50
2022-12-31T14:13:36.066Z,27.30
2022-12-31T14:15:51.703Z,24.80
2022-12-31T14:18:03.610Z,26.70
2022-12-31T14:20:18.405Z,26.70
2022-12-31T14:22:33.965Z,26.20
2022-12-31T14:24:45.428Z,25.60
2022-12-31T14:26:56.283Z,27.10
2022-12-31T14:29:12.823Z,26.20
2022-12-31T14:31:26.997Z,25.60
2022-12-31T14:33:41.973Z,25.60
2022-12-31T14:36:01.023Z,24.30
2022-12-31T14:38:18.157Z,24.20
2022-12-31T14:40:36.719Z,28.40
2022-12-31T14:42:52.837Z,25.40
2022-12-31T14:45:15.173Z,28.70
2022-12-31T14:47:36.846Z,28.70
2022-12-31T14:49:53.474Z,28.60
2022-12-31T14:52:17.924Z,27.80
2022-12-31T14:54:29.531Z,26.50
2022-12-31T14:56:44.177Z,24.90
2022-12-31T14:58:57.156Z,26.60
2022-12-31T15:01:06.207Z,27.10
2022-12-31T15:03:25.967Z,28.40
2022-12-31T15:05:33.545Z,29.00
2022-12-31T15:07:49.999Z,27.40
2022-12-31T15:10:10.083Z,27.60
2022-12-31T15:12:33.307Z,31.50
2022-12-31T15:15:07.869Z,29.50
2022-12-31T15:17:24.327Z,28.60
2022-12-31T15:20:13.261Z,27.70
2022-12-31T15:22:33.651Z,28.70
2022-12-31T15:24:46.080Z,26.20
2022-12-31T15:26:55.827Z,29.40
2022-12-31T15:29:04.001Z,28.80
2022-12-31T15:31:19.416Z,27.70
2022-12-31T15:33:33.696Z,25.20
2022-12-31T15:35:51.640Z,27.10
2022-12-31T15:38:30.306Z,29.30
2022-12-31T15:40:45.910Z,28.60
2022-12-31T15:42:54.687Z,27.20
2022-12-31T15:45:06.281Z,26.50
2022-12-31T15:47:27.759Z,27.30
2022-12-31T15:49:40.766Z,27.20
2022-12-31T15:51:56.207Z,27.30
2022-12-31T15:54:02.374Z,28.10
2022-12-31T15:56:18.930Z,25.80
2022-12-31T15:58:30.079Z,25.30
2022-12-31T16:00:50.475Z,24.80
2022-12-31T16:02:56.266Z,25.70
2022-12-31T16:05:01.325Z,23.30
2022-12-31T16:07:12.043Z,24.60
2022-12-31T16:09:24.307Z,24.50
2022-12-31T16:11:35.652Z,23.20
2022-12-31T16:13:45.601Z,24.20
2022-12-31T16:16:05.778Z,22.60
2022-12-31T16:18:17.152Z,23.70
2022-12-31T16:20:28.172Z,24.30
2022-12-31T16:22:39.963Z,24.60
2022-12-31T16:25:10.825Z,25.50
2022-12-31T16:27:16.518Z,37.30
2022-12-31T16:29:24.059Z,36.60
2022-12-31T16:31:30.682Z,29.90
2022-12-31T16:33:35.580Z,36.90
2022-12-31T16:35:40.689Z,36.60
2022-12-31T16:37:45.559Z,37.10
2022-12-31T16:40:18.602Z,34.80
2022-12-31T16:42:24.866Z,32.50
2022-12-31T16:44:30.744Z,37.30
2022-12-31T16:46:35.661Z,39.20
2022-12-31T16:48:40.627Z,60.60
2022-12-31T16:50:50.596Z,55.90
2022-12-31T16:53:00.381Z,47.10
2022-12-31T16:55:10.082Z,45.40
2022-12-31T16:57:21.401Z,47.80
2022-12-31T16:59:34.712Z,44.40
2022-12-31T17:01:41.895Z,42.40
2022-12-31T17:03:51.442Z,38.70
2022-12-31T17:05:59.687Z,30.70
2022-12-31T17:08:21.812Z,36.40
2022-12-31T17:10:36.043Z,31.00
2022-12-31T17:13:25.392Z,28.80
2022-12-31T17:15:21.381Z,28.20
2022-12-31T17:17:28.981Z,31.30
2022-12-31T17:19:44.808Z,30.00
2022-12-31T17:21:50.066Z,28.60
2022-12-31T17:24:00.510Z,26.90
2022-12-31T17:26:11.483Z,25.90
2022-12-31T17:28:24.115Z,28.20
2022-12-31T17:30:40.454Z,25.90
2022-12-31T17:32:45.455Z,26.50
2022-12-31T17:34:51.255Z,28.10
2022-12-31T17:37:00.580Z,28.90
2022-12-31T17:39:20.896Z,28.80
2022-12-31T17:41:27.185Z,30.00
2022-12-31T17:43:35.496Z,29.40
2022-12-31T17:45:44.504Z,28.10
2022-12-31T17:47:50.838Z,30.80
2022-12-31T17:49:58.192Z,30.30
2022-12-31T17:52:03.017Z,27.90
2022-12-31T17:54:13.759Z,28.50
2022-12-31T17:56:22.061Z,29.20
2022-12-31T17:58:31.089Z,28.50
2022-12-31T18:00:38.327Z,26.90
2022-12-31T18:02:43.101Z,27.80
2022-12-31T18:04:47.899Z,29.40
2022-12-31T18:06:52.725Z,25.20
2022-12-31T18:08:57.470Z,29.40
2022-12-31T18:11:06.506Z,30.40
2022-12-31T18:13:16.272Z,29.20
2022-12-31T18:15:23.628Z,30.80
2022-12-31T18:17:29.690Z,30.10
2022-12-31T18:21:59.295Z,31.60
2022-12-31T18:24:06.141Z,31.50
2022-12-31T18:26:14.835Z,31.50
2022-12-31T18:28:19.746Z,33.90
2022-12-31T18:30:24.449Z,32.30
2022-12-31T18:32:31.270Z,32.90
2022-12-31T18:34:35.995Z,31.50
2022-12-31T18:36:40.695Z,37.50
2022-12-31T18:38:45.632Z,42.30
2022-12-31T18:40:57.153Z,48.50
2022-12-31T18:43:05.164Z,82.90
2022-12-31T18:45:20.767Z,54.20
2022-12-31T18:47:25.577Z,46.80
2022-12-31T18:49:30.371Z,46.60
2022-12-31T18:51:35.434Z,46.50
2022-12-31T18:53:40.101Z,55.90
2022-12-31T18:55:49.614Z,45.60
2022-12-31T18:57:54.373Z,50.20
2022-12-31T19:00:04.636Z,52.10
2022-12-31T19:02:16.898Z,48.80
2022-12-31T19:04:27.570Z,51.70
2022-12-31T19:06:33.013Z,47.50
2022-12-31T19:08:37.882Z,47.30
2022-12-31T19:10:42.708Z,47.40
2022-12-31T19:12:48.078Z,48.90
2022-12-31T19:14:52.880Z,52.70
2022-12-31T19:19:08.455Z,49.50
2022-12-31T19:21:19.194Z,55.10
2022-12-31T19:23:23.863Z,51.70
2022-12-31T19:25:32.936Z,56.40
2022-12-31T19:27:37.969Z,48.10
2022-12-31T19:29:42.674Z,52.50
2022-12-31T19:31:47.529Z,52.60
2022-12-31T19:33:52.333Z,43.00
2022-12-31T19:36:01.419Z,48.30
2022-12-31T19:38:14.749Z,53.30
2022-12-31T19:40:21.964Z,52.40
2022-12-31T19:42:26.630Z,51.90
2022-12-31T19:44:31.326Z,52.40
2022-12-31T19:46:36.080Z,52.20
2022-12-31T19:48:44.198Z,52.10
2022-12-31T19:50:51.410Z,50.70
2022-12-31T19:52:59.712Z,49.50
2022-12-31T19:55:04.874Z,51.60
2022-12-31T19:57:09.535Z,51.80
2022-12-31T19:59:17.071Z,50.10
2022-12-31T20:01:23.548Z,53.00
2022-12-31T20:03:28.743Z,53.80
2022-12-31T20:05:36.699Z,46.20
2022-12-31T20:07:41.846Z,47.20
2022-12-31T20:09:46.568Z,43.20
2022-12-31T20:11:54.571Z,46.70
2022-12-31T20:14:02.537Z,46.70
2022-12-31T20:16:09.815Z,41.40
2022-12-31T20:18:14.678Z,42.40
2022-12-31T20:20:21.467Z,39.10
2022-12-31T20:22:26.198Z,43.20
2022-12-31T20:24:31.001Z,40.90
2022-12-31T20:26:35.739Z,46.10
2022-12-31T20:28:40.483Z,46.40
2022-12-31T20:30:45.234Z,47.10
2022-12-31T20:32:50.170Z,46.80
2022-12-31T20:34:55.412Z,53.90
2022-12-31T20:37:00.144Z,65.70
2022-12-31T20:39:05.004Z,62.70
2022-12-31T20:41:18.746Z,54.60
2022-12-31T20:43:23.510Z,54.30
2022-12-31T20:45:28.441Z,57.90
2022-12-31T20:47:33.084Z,56.80
2022-12-31T20:52:05.403Z,57.70
2022-12-31T20:54:14.311Z,62.70
2022-12-31T20:56:19.663Z,69.20
2022-12-31T20:58:24.449Z,71.70
2022-12-31T21:00:29.774Z,70.40
2022-12-31T21:02:42.609Z,64.40
2022-12-31T21:04:48.380Z,68.70
2022-12-31T21:06:53.313Z,70.00
2022-12-31T21:08:59.805Z,72.60
2022-12-31T21:11:05.974Z,68.90
2022-12-31T21:13:11.193Z,66.20
2022-12-31T21:15:16.083Z,69.70
2022-12-31T21:17:21.163Z,66.50
2022-12-31T21:19:25.933Z,65.70
2022-12-31T21:21:30.736Z,57.50
2022-12-31T21:23:35.917Z,76.40
2022-12-31T21:25:42.678Z,247.20
2022-12-31T21:27:47.462Z,100.10
2022-12-31T21:30:17.716Z,75.90
2022-12-31T21:32:16.915Z,70.70
2022-12-31T21:34:21.644Z,81.30
2022-12-31T21:36:26.437Z,86.80
2022-12-31T21:38:33.819Z,77.70
2022-12-31T21:40:38.535Z,77.30
2022-12-31T21:42:43.383Z,83.80
2022-12-31T21:44:48.629Z,86.30
2022-12-31T21:47:34.037Z,86.70
2022-12-31T21:49:31.555Z,81.60
2022-12-31T21:51:36.260Z,86.80
2022-12-31T21:53:43.915Z,83.10
2022-12-31T21:55:48.719Z,82.50
2022-12-31T22:00:41.814Z,90.20
2022-12-31T22:02:59.155Z,90.60
2022-12-31T22:05:14.881Z,93.40
2022-12-31T22:07:23.322Z,98.40
2022-12-31T22:09:28.085Z,87.80
2022-12-31T22:11:32.987Z,86.40
2022-12-31T22:13:38.712Z,92.60
2022-12-31T22:15:45.967Z,85.40
2022-12-31T22:17:53.817Z,91.20
2022-12-31T22:22:23.382Z,94.00
2022-12-31T22:24:28.153Z,86.20
2022-12-31T22:26:32.892Z,78.80
2022-12-31T22:28:40.668Z,89.90
2022-12-31T22:30:49.374Z,90.60
2022-12-31T22:32:54.160Z,87.70
2022-12-31T22:34:59.057Z,73.80
2022-12-31T22:37:27.584Z,86.20
2022-12-31T22:39:43.312Z,89.80
2022-12-31T22:41:49.317Z,83.90
2022-12-31T22:44:02.564Z,92.90
2022-12-31T22:46:13.754Z,102.00
2022-12-31T22:48:18.597Z,93.80
2022-12-31T22:50:23.377Z,92.40
2022-12-31T22:52:28.127Z,93.60
2022-12-31T22:54:32.847Z,94.90
2022-12-31T22:56:37.560Z,79.10
2022-12-31T22:58:42.472Z,83.10
2022-12-31T23:00:47.381Z,67.80
2022-12-31T23:02:55.363Z,71.30
2022-12-31T23:05:15.550Z,106.50
2022-12-31T23:07:21.723Z,223.90
2022-12-31T23:09:26.459Z,197.70
2022-12-31T23:11:35.129Z,159.10
2022-12-31T23:13:49.517Z,144.70
2022-12-31T23:15:58.087Z,151.70
2022-12-31T23:18:02.892Z,135.30
2022-12-31T23:20:12.944Z,134.10
2022-12-31T23:22:20.481Z,129.90
2022-12-31T23:24:27.795Z,130.50
2022-12-31T23:26:32.602Z,124.50
2022-12-31T23:28:38.808Z,131.10
2022-12-31T23:30:44.527Z,152.50
2022-12-31T23:32:49.589Z,246.30
2022-12-31T23:34:54.563Z,333.80
2022-12-31T23:36:59.330Z,324.00
2022-12-31T23:39:04.233Z,347.80
2022-12-31T23:41:15.857Z,443.20
2022-12-31T23:43:22.737Z,494.90
2022-12-31T23:45:32.822Z,474.20
2022-12-31T23:47:38.263Z,377.90
2022-12-31T23:49:43.009Z,310.90
2022-12-31T23:51:47.904Z,288.60
2022-12-31T23:53:52.905Z,280.80
2022-12-31T23:56:12.865Z,292.50
2022-12-31T23:58:22.859Z,297.90
